CheckWX is a tool to help pilots better visualize weather data.  It is not intended as a substitute for an official pre-flight weather briefing.

18:35:01 UTC

EGXZ METAR
RAF Topcliffe Airport
Topcliffe, United Kingdom
Current

45 mins ago

EGXZ 221750Z AUTO 14008KT 9999 BKN190/// SCT240/// 10/07 Q1033
Observed
Feb-22 @ 17:50 UTC
Wind
  • 140° at 8 KTS
Visibility
10,000+ meters
Flight Rules
VFR
Cloud Levels
  • Broken at 19,000' AGL
  • Scattered at 24,000' AGL
Temperature
10°C / 50°F
Dewpoint
C / 45°F
Humidity
82%
Altimeter
30.5" Hg
Pressure
1032.91 hPa
Previous

2 hours ago

EGXZ 221650Z AUTO 13008KT 9999 FEW190/// 12/08 Q1033
Observed
Feb-22 @ 16:50 UTC
Wind
  • 130° at 8 KTS
Visibility
10,000+ meters
Flight Rules
VFR
Cloud Levels
  • Few at 19,000' AGL
Temperature
12°C / 54°F
Dewpoint
C / 46°F
Humidity
77%
Altimeter
30.5" Hg
Pressure
1032.91 hPa
Previous

3 hours ago

EGXZ 221550Z AUTO 15011KT 9999 FEW001/// 15/08 Q1033
Observed
Feb-22 @ 15:50 UTC
Wind
  • 150° at 11 KTS
Visibility
10,000+ meters
Flight Rules
VFR
Cloud Levels
  • Few at 100' AGL
Temperature
15°C / 59°F
Dewpoint
C / 46°F
Humidity
63%
Altimeter
30.5" Hg
Pressure
1032.91 hPa